sensor_id;sensor_type;location;lat;lon;timestamp;temperature;humidity
5358;DHT22;2702;51.014;7.170;2023-05-13T00:00:52;14.80;99.90
5358;DHT22;2702;51.014;7.170;2023-05-13T00:03:25;14.70;99.90
5358;DHT22;2702;51.014;7.170;2023-05-13T00:05:55;14.70;99.90
5358;DHT22;2702;51.014;7.170;2023-05-13T00:08:23;14.60;99.90
5358;DHT22;2702;51.014;7.170;2023-05-13T00:10:49;14.40;99.90
5358;DHT22;2702;51.014;7.170;2023-05-13T00:13:16;14.30;99.90
5358;DHT22;2702;51.014;7.170;2023-05-13T00:15:42;14.20;99.90
5358;DHT22;2702;51.014;7.170;2023-05-13T00:18:09;14.20;99.90
5358;DHT22;2702;51.014;7.170;2023-05-13T00:20:35;14.10;99.90
5358;DHT22;2702;51.014;7.170;2023-05-13T00:23:02;14.10;99.90
5358;DHT22;2702;51.014;7.170;2023-05-13T00:25:28;14.00;99.90
5358;DHT22;2702;51.014;7.170;2023-05-13T00:27:55;14.00;99.90
5358;DHT22;2702;51.014;7.170;2023-05-13T00:30:21;14.00;99.90
5358;DHT22;2702;51.014;7.170;2023-05-13T00:32:48;14.00;99.90
5358;DHT22;2702;51.014;7.170;2023-05-13T00:35:14;14.00;99.90
5358;DHT22;2702;51.014;7.170;2023-05-13T00:37:48;14.00;99.90
5358;DHT22;2702;51.014;7.170;2023-05-13T00:40:23;14.00;99.90
5358;DHT22;2702;51.014;7.170;2023-05-13T00:43:11;13.90;99.90
5358;DHT22;2702;51.014;7.170;2023-05-13T00:45:39;13.90;99.90
5358;DHT22;2702;51.014;7.170;2023-05-13T00:48:06;13.90;99.90
5358;DHT22;2702;51.014;7.170;2023-05-13T00:50:35;13.90;99.90
5358;DHT22;2702;51.014;7.170;2023-05-13T00:53:02;13.90;99.90
5358;DHT22;2702;51.014;7.170;2023-05-13T00:55:29;13.90;99.90
5358;DHT22;2702;51.014;7.170;2023-05-13T00:57:59;13.90;99.90
5358;DHT22;2702;51.014;7.170;2023-05-13T01:00:28;14.00;99.90
5358;DHT22;2702;51.014;7.170;2023-05-13T01:03:05;14.00;99.90
5358;DHT22;2702;51.014;7.170;2023-05-13T01:11:49;13.90;99.90
5358;DHT22;2702;51.014;7.170;2023-05-13T01:14:24;13.90;99.90
5358;DHT22;2702;51.014;7.170;2023-05-13T01:17:00;13.80;99.90
5358;DHT22;2702;51.014;7.170;2023-05-13T01:19:55;13.80;99.90
5358;DHT22;2702;51.014;7.170;2023-05-13T01:22:24;13.80;99.90
5358;DHT22;2702;51.014;7.170;2023-05-13T01:24:51;13.70;99.90
5358;DHT22;2702;51.014;7.170;2023-05-13T01:27:22;13.70;99.90
5358;DHT22;2702;51.014;7.170;2023-05-13T01:29:53;13.70;99.90
5358;DHT22;2702;51.014;7.170;2023-05-13T01:32:31;13.70;99.90
5358;DHT22;2702;51.014;7.170;2023-05-13T01:34:58;13.60;99.90
5358;DHT22;2702;51.014;7.170;2023-05-13T01:37:26;13.60;99.90
5358;DHT22;2702;51.014;7.170;2023-05-13T01:39:54;13.60;99.90
5358;DHT22;2702;51.014;7.170;2023-05-13T01:42:22;13.60;99.90
5358;DHT22;2702;51.014;7.170;2023-05-13T01:45:15;13.50;99.90
5358;DHT22;2702;51.014;7.170;2023-05-13T01:47:42;13.50;99.90
5358;DHT22;2702;51.014;7.170;2023-05-13T01:50:12;13.50;99.90
5358;DHT22;2702;51.014;7.170;2023-05-13T01:52:41;13.50;99.90
5358;DHT22;2702;51.014;7.170;2023-05-13T01:55:09;13.40;99.90
5358;DHT22;2702;51.014;7.170;2023-05-13T01:57:36;13.20;99.90
5358;DHT22;2702;51.014;7.170;2023-05-13T02:00:18;13.20;99.90
5358;DHT22;2702;51.014;7.170;2023-05-13T02:02:48;13.20;99.90
5358;DHT22;2702;51.014;7.170;2023-05-13T02:05:39;13.10;99.90
5358;DHT22;2702;51.014;7.170;2023-05-13T02:08:07;13.10;99.90
5358;DHT22;2702;51.014;7.170;2023-05-13T02:10:34;13.10;99.90
5358;DHT22;2702;51.014;7.170;2023-05-13T02:13:03;12.90;99.90
5358;DHT22;2702;51.014;7.170;2023-05-13T02:15:38;12.90;99.90
5358;DHT22;2702;51.014;7.170;2023-05-13T02:18:13;12.80;99.90
5358;DHT22;2702;51.014;7.170;2023-05-13T02:20:41;12.80;99.90
5358;DHT22;2702;51.014;7.170;2023-05-13T02:23:08;12.80;99.90
5358;DHT22;2702;51.014;7.170;2023-05-13T02:25:36;12.80;99.90
5358;DHT22;2702;51.014;7.170;2023-05-13T02:28:11;12.90;99.90
5358;DHT22;2702;51.014;7.170;2023-05-13T02:30:38;12.90;99.90
5358;DHT22;2702;51.014;7.170;2023-05-13T02:33:13;13.00;99.90
5358;DHT22;2702;51.014;7.170;2023-05-13T02:35:40;12.90;99.90
5358;DHT22;2702;51.014;7.170;2023-05-13T02:38:10;12.90;99.90
5358;DHT22;2702;51.014;7.170;2023-05-13T02:40:37;12.90;99.90
5358;DHT22;2702;51.014;7.170;2023-05-13T02:43:03;12.90;99.90
5358;DHT22;2702;51.014;7.170;2023-05-13T02:45:47;13.00;99.90
5358;DHT22;2702;51.014;7.170;2023-05-13T02:48:15;13.00;99.90
5358;DHT22;2702;51.014;7.170;2023-05-13T02:50:43;13.00;99.90
5358;DHT22;2702;51.014;7.170;2023-05-13T02:53:10;13.10;99.90
5358;DHT22;2702;51.014;7.170;2023-05-13T02:55:41;13.10;99.90
5358;DHT22;2702;51.014;7.170;2023-05-13T02:58:08;13.10;99.90
5358;DHT22;2702;51.014;7.170;2023-05-13T03:00:41;13.10;99.90
5358;DHT22;2702;51.014;7.170;2023-05-13T03:03:08;13.10;99.90
5358;DHT22;2702;51.014;7.170;2023-05-13T03:05:35;13.10;99.90
5358;DHT22;2702;51.014;7.170;2023-05-13T03:08:01;13.00;99.90
5358;DHT22;2702;51.014;7.170;2023-05-13T03:10:28;13.00;99.90
5358;DHT22;2702;51.014;7.170;2023-05-13T03:13:06;12.90;99.90
5358;DHT22;2702;51.014;7.170;2023-05-13T03:15:32;13.00;99.90
5358;DHT22;2702;51.014;7.170;2023-05-13T03:18:05;12.90;99.90
5358;DHT22;2702;51.014;7.170;2023-05-13T03:20:32;12.90;99.90
5358;DHT22;2702;51.014;7.170;2023-05-13T03:23:04;12.90;99.90
5358;DHT22;2702;51.014;7.170;2023-05-13T03:25:52;12.90;99.90
5358;DHT22;2702;51.014;7.170;2023-05-13T03:28:37;13.00;99.90
5358;DHT22;2702;51.014;7.170;2023-05-13T03:31:04;12.90;99.90
5358;DHT22;2702;51.014;7.170;2023-05-13T03:34:05;13.00;99.90
5358;DHT22;2702;51.014;7.170;2023-05-13T03:36:32;12.90;99.90
5358;DHT22;2702;51.014;7.170;2023-05-13T03:39:04;12.80;99.90
5358;DHT22;2702;51.014;7.170;2023-05-13T03:41:30;12.80;99.90
5358;DHT22;2702;51.014;7.170;2023-05-13T03:43:58;12.70;99.90
5358;DHT22;2702;51.014;7.170;2023-05-13T03:46:25;12.80;99.90
5358;DHT22;2702;51.014;7.170;2023-05-13T03:49:05;12.80;99.90
5358;DHT22;2702;51.014;7.170;2023-05-13T03:51:32;12.80;99.90
5358;DHT22;2702;51.014;7.170;2023-05-13T03:54:08;12.80;99.90
5358;DHT22;2702;51.014;7.170;2023-05-13T03:56:35;12.90;99.90
5358;DHT22;2702;51.014;7.170;2023-05-13T03:59:02;12.90;99.90
5358;DHT22;2702;51.014;7.170;2023-05-13T04:01:34;12.90;99.90
5358;DHT22;2702;51.014;7.170;2023-05-13T04:04:28;12.90;99.90
5358;DHT22;2702;51.014;7.170;2023-05-13T04:06:56;12.90;99.90
5358;DHT22;2702;51.014;7.170;2023-05-13T04:09:35;12.90;99.90
5358;DHT22;2702;51.014;7.170;2023-05-13T04:12:03;12.90;99.90
5358;DHT22;2702;51.014;7.170;2023-05-13T04:14:29;12.90;99.90
5358;DHT22;2702;51.014;7.170;2023-05-13T04:16:56;12.90;99.90
5358;DHT22;2702;51.014;7.170;2023-05-13T04:19:23;12.90;99.90
5358;DHT22;2702;51.014;7.170;2023-05-13T04:21:50;12.90;99.90
5358;DHT22;2702;51.014;7.170;2023-05-13T04:24:19;12.90;99.90
5358;DHT22;2702;51.014;7.170;2023-05-13T04:26:48;12.80;99.90
5358;DHT22;2702;51.014;7.170;2023-05-13T04:29:30;12.70;99.90
5358;DHT22;2702;51.014;7.170;2023-05-13T04:31:57;12.80;99.90
5358;DHT22;2702;51.014;7.170;2023-05-13T04:34:24;12.70;99.90
5358;DHT22;2702;51.014;7.170;2023-05-13T04:37:12;12.50;99.90
5358;DHT22;2702;51.014;7.170;2023-05-13T04:39:38;12.50;99.90
5358;DHT22;2702;51.014;7.170;2023-05-13T04:42:15;12.40;99.90
5358;DHT22;2702;51.014;7.170;2023-05-13T04:44:44;12.20;99.90
5358;DHT22;2702;51.014;7.170;2023-05-13T04:47:11;12.20;99.90
5358;DHT22;2702;51.014;7.170;2023-05-13T04:49:37;12.20;99.90
5358;DHT22;2702;51.014;7.170;2023-05-13T04:52:05;12.10;99.90
5358;DHT22;2702;51.014;7.170;2023-05-13T04:54:41;12.10;99.90
5358;DHT22;2702;51.014;7.170;2023-05-13T04:57:08;12.10;99.90
5358;DHT22;2702;51.014;7.170;2023-05-13T04:59:35;12.10;99.90
5358;DHT22;2702;51.014;7.170;2023-05-13T05:02:02;12.20;99.90
5358;DHT22;2702;51.014;7.170;2023-05-13T05:04:29;12.00;99.90
5358;DHT22;2702;51.014;7.170;2023-05-13T05:06:56;12.10;99.90
5358;DHT22;2702;51.014;7.170;2023-05-13T05:09:22;12.20;99.90
5358;DHT22;2702;51.014;7.170;2023-05-13T05:11:51;12.20;99.90
5358;DHT22;2702;51.014;7.170;2023-05-13T05:14:20;12.30;99.90
5358;DHT22;2702;51.014;7.170;2023-05-13T05:17:10;12.40;99.90
5358;DHT22;2702;51.014;7.170;2023-05-13T05:19:38;12.50;99.90
5358;DHT22;2702;51.014;7.170;2023-05-13T05:22:08;12.60;99.90
5358;DHT22;2702;51.014;7.170;2023-05-13T05:27:51;12.80;99.90
5358;DHT22;2702;51.014;7.170;2023-05-13T05:30:18;12.80;99.90
5358;DHT22;2702;51.014;7.170;2023-05-13T05:32:48;12.80;99.90
5358;DHT22;2702;51.014;7.170;2023-05-13T05:35:16;12.90;99.90
5358;DHT22;2702;51.014;7.170;2023-05-13T05:37:46;12.90;99.90
5358;DHT22;2702;51.014;7.170;2023-05-13T05:40:22;12.90;99.90
5358;DHT22;2702;51.014;7.170;2023-05-13T05:42:50;12.90;99.90
5358;DHT22;2702;51.014;7.170;2023-05-13T05:45:22;13.00;99.90
5358;DHT22;2702;51.014;7.170;2023-05-13T05:47:51;13.10;99.90
5358;DHT22;2702;51.014;7.170;2023-05-13T05:50:27;13.30;99.90
5358;DHT22;2702;51.014;7.170;2023-05-13T05:52:54;13.40;99.90
5358;DHT22;2702;51.014;7.170;2023-05-13T05:55:21;13.20;99.90
5358;DHT22;2702;51.014;7.170;2023-05-13T05:58:08;13.20;99.90
5358;DHT22;2702;51.014;7.170;2023-05-13T06:00:37;13.20;99.90
5358;DHT22;2702;51.014;7.170;2023-05-13T06:03:15;13.10;99.90
5358;DHT22;2702;51.014;7.170;2023-05-13T06:05:42;13.10;99.90
5358;DHT22;2702;51.014;7.170;2023-05-13T06:08:08;13.10;99.90
5358;DHT22;2702;51.014;7.170;2023-05-13T06:10:34;13.20;99.90
5358;DHT22;2702;51.014;7.170;2023-05-13T06:13:00;13.10;99.90
5358;DHT22;2702;51.014;7.170;2023-05-13T06:15:29;13.30;99.90
5358;DHT22;2702;51.014;7.170;2023-05-13T06:17:56;13.50;99.90
5358;DHT22;2702;51.014;7.170;2023-05-13T06:20:49;13.60;99.90
5358;DHT22;2702;51.014;7.170;2023-05-13T06:23:24;13.80;99.90
5358;DHT22;2702;51.014;7.170;2023-05-13T06:25:51;13.90;99.90
5358;DHT22;2702;51.014;7.170;2023-05-13T06:28:24;14.10;99.90
5358;DHT22;2702;51.014;7.170;2023-05-13T06:30:52;14.20;99.90
5358;DHT22;2702;51.014;7.170;2023-05-13T06:33:34;14.20;99.90
5358;DHT22;2702;51.014;7.170;2023-05-13T06:36:01;14.40;99.90
5358;DHT22;2702;51.014;7.170;2023-05-13T06:38:37;14.40;99.90
5358;DHT22;2702;51.014;7.170;2023-05-13T06:41:06;14.50;99.90
5358;DHT22;2702;51.014;7.170;2023-05-13T06:43:35;14.50;99.90
5358;DHT22;2702;51.014;7.170;2023-05-13T06:46:17;14.60;99.90
5358;DHT22;2702;51.014;7.170;2023-05-13T06:48:48;14.80;99.90
5358;DHT22;2702;51.014;7.170;2023-05-13T06:51:17;14.90;99.90
5358;DHT22;2702;51.014;7.170;2023-05-13T06:53:45;15.00;99.90
5358;DHT22;2702;51.014;7.170;2023-05-13T06:56:11;14.90;99.90
5358;DHT22;2702;51.014;7.170;2023-05-13T06:58:40;14.90;99.90
5358;DHT22;2702;51.014;7.170;2023-05-13T07:01:06;14.90;99.90
5358;DHT22;2702;51.014;7.170;2023-05-13T07:03:32;15.00;99.90
5358;DHT22;2702;51.014;7.170;2023-05-13T07:06:08;15.00;99.90
5358;DHT22;2702;51.014;7.170;2023-05-13T07:08:38;15.20;99.90
5358;DHT22;2702;51.014;7.170;2023-05-13T07:11:08;15.30;99.90
5358;DHT22;2702;51.014;7.170;2023-05-13T07:13:35;15.40;99.90
5358;DHT22;2702;51.014;7.170;2023-05-13T07:16:01;15.50;99.90
5358;DHT22;2702;51.014;7.170;2023-05-13T07:18:52;15.60;99.90
5358;DHT22;2702;51.014;7.170;2023-05-13T07:21:19;15.70;99.90
5358;DHT22;2702;51.014;7.170;2023-05-13T07:23:47;15.70;99.90
5358;DHT22;2702;51.014;7.170;2023-05-13T07:26:15;15.80;99.90
5358;DHT22;2702;51.014;7.170;2023-05-13T07:28:45;15.90;99.90
5358;DHT22;2702;51.014;7.170;2023-05-13T07:31:14;16.00;99.90
5358;DHT22;2702;51.014;7.170;2023-05-13T07:33:44;16.10;99.90
5358;DHT22;2702;51.014;7.170;2023-05-13T07:36:13;16.20;99.90
5358;DHT22;2702;51.014;7.170;2023-05-13T07:38:45;16.30;99.90
5358;DHT22;2702;51.014;7.170;2023-05-13T07:41:11;16.50;99.90
5358;DHT22;2702;51.014;7.170;2023-05-13T07:43:40;16.70;99.90
5358;DHT22;2702;51.014;7.170;2023-05-13T07:46:09;17.00;99.90
5358;DHT22;2702;51.014;7.170;2023-05-13T07:48:37;17.20;99.90
5358;DHT22;2702;51.014;7.170;2023-05-13T07:51:08;17.40;99.90
5358;DHT22;2702;51.014;7.170;2023-05-13T07:53:35;17.50;99.90
5358;DHT22;2702;51.014;7.170;2023-05-13T07:56:02;17.60;99.90
5358;DHT22;2702;51.014;7.170;2023-05-13T07:58:32;17.70;99.90
5358;DHT22;2702;51.014;7.170;2023-05-13T08:01:01;17.80;99.90
5358;DHT22;2702;51.014;7.170;2023-05-13T08:03:27;18.00;99.90
5358;DHT22;2702;51.014;7.170;2023-05-13T08:05:53;18.10;99.90
5358;DHT22;2702;51.014;7.170;2023-05-13T08:08:20;18.30;99.90
5358;DHT22;2702;51.014;7.170;2023-05-13T08:10:47;18.40;99.90
5358;DHT22;2702;51.014;7.170;2023-05-13T08:13:20;18.50;99.90
5358;DHT22;2702;51.014;7.170;2023-05-13T08:15:48;18.70;99.90
5358;DHT22;2702;51.014;7.170;2023-05-13T08:18:32;18.70;99.90
5358;DHT22;2702;51.014;7.170;2023-05-13T08:20:59;18.80;99.90
5358;DHT22;2702;51.014;7.170;2023-05-13T08:23:25;19.00;99.90
5358;DHT22;2702;51.014;7.170;2023-05-13T08:25:52;18.90;99.90
5358;DHT22;2702;51.014;7.170;2023-05-13T08:28:18;18.90;99.90
5358;DHT22;2702;51.014;7.170;2023-05-13T08:31:10;18.90;99.90
5358;DHT22;2702;51.014;7.170;2023-05-13T08:33:38;19.10;99.90
5358;DHT22;2702;51.014;7.170;2023-05-13T08:36:09;19.10;99.90
5358;DHT22;2702;51.014;7.170;2023-05-13T08:38:36;19.10;99.90
5358;DHT22;2702;51.014;7.170;2023-05-13T08:41:03;19.10;99.90
5358;DHT22;2702;51.014;7.170;2023-05-13T08:43:34;19.30;99.90
5358;DHT22;2702;51.014;7.170;2023-05-13T08:46:31;19.50;99.90
5358;DHT22;2702;51.014;7.170;2023-05-13T08:48:58;19.70;99.90
5358;DHT22;2702;51.014;7.170;2023-05-13T08:51:24;19.90;99.90
5358;DHT22;2702;51.014;7.170;2023-05-13T08:53:52;20.10;99.90
5358;DHT22;2702;51.014;7.170;2023-05-13T08:56:24;20.40;99.90
5358;DHT22;2702;51.014;7.170;2023-05-13T08:58:56;20.30;99.90
5358;DHT22;2702;51.014;7.170;2023-05-13T09:01:23;20.50;99.90
5358;DHT22;2702;51.014;7.170;2023-05-13T09:03:57;20.60;99.90
5358;DHT22;2702;51.014;7.170;2023-05-13T09:06:27;20.60;99.90
5358;DHT22;2702;51.014;7.170;2023-05-13T09:09:04;20.80;99.90
5358;DHT22;2702;51.014;7.170;2023-05-13T09:11:58;20.70;99.90
5358;DHT22;2702;51.014;7.170;2023-05-13T09:14:29;20.20;99.90
5358;DHT22;2702;51.014;7.170;2023-05-13T09:16:59;20.10;99.90
5358;DHT22;2702;51.014;7.170;2023-05-13T09:19:40;20.00;99.90
5358;DHT22;2702;51.014;7.170;2023-05-13T09:22:18;20.00;99.90
5358;DHT22;2702;51.014;7.170;2023-05-13T09:24:59;19.80;99.90
5358;DHT22;2702;51.014;7.170;2023-05-13T09:27:50;19.90;99.90
5358;DHT22;2702;51.014;7.170;2023-05-13T09:30:38;19.90;99.90
5358;DHT22;2702;51.014;7.170;2023-05-13T09:33:28;19.80;99.90
5358;DHT22;2702;51.014;7.170;2023-05-13T09:35:56;20.10;99.90
5358;DHT22;2702;51.014;7.170;2023-05-13T09:38:35;20.10;99.90
5358;DHT22;2702;51.014;7.170;2023-05-13T09:41:07;20.10;99.90
5358;DHT22;2702;51.014;7.170;2023-05-13T09:43:48;19.90;99.90
5358;DHT22;2702;51.014;7.170;2023-05-13T09:46:14;19.70;99.90
5358;DHT22;2702;51.014;7.170;2023-05-13T09:48:44;19.30;99.90
5358;DHT22;2702;51.014;7.170;2023-05-13T09:51:10;19.30;99.90
5358;DHT22;2702;51.014;7.170;2023-05-13T09:53:37;19.10;99.90
5358;DHT22;2702;51.014;7.170;2023-05-13T09:56:09;19.40;99.90
5358;DHT22;2702;51.014;7.170;2023-05-13T09:58:42;19.40;99.90
5358;DHT22;2702;51.014;7.170;2023-05-13T10:01:24;19.40;99.90
5358;DHT22;2702;51.014;7.170;2023-05-13T10:03:50;19.60;99.90
5358;DHT22;2702;51.014;7.170;2023-05-13T10:06:18;19.50;99.90
5358;DHT22;2702;51.014;7.170;2023-05-13T10:08:51;19.70;99.90
5358;DHT22;2702;51.014;7.170;2023-05-13T10:11:19;19.80;99.90
5358;DHT22;2702;51.014;7.170;2023-05-13T10:13:51;19.80;99.90
5358;DHT22;2702;51.014;7.170;2023-05-13T10:16:43;19.90;99.90
5358;DHT22;2702;51.014;7.170;2023-05-13T10:19:13;19.80;99.90
5358;DHT22;2702;51.014;7.170;2023-05-13T10:21:40;19.90;99.90
5358;DHT22;2702;51.014;7.170;2023-05-13T10:24:12;19.90;99.90
5358;DHT22;2702;51.014;7.170;2023-05-13T10:27:00;20.00;99.90
5358;DHT22;2702;51.014;7.170;2023-05-13T10:29:28;20.20;99.90
5358;DHT22;2702;51.014;7.170;2023-05-13T10:32:14;20.30;99.90
5358;DHT22;2702;51.014;7.170;2023-05-13T10:34:44;20.30;99.90
5358;DHT22;2702;51.014;7.170;2023-05-13T10:40:31;20.20;99.90
5358;DHT22;2702;51.014;7.170;2023-05-13T10:43:21;20.30;99.90
5358;DHT22;2702;51.014;7.170;2023-05-13T10:46:11;20.30;99.90
5358;DHT22;2702;51.014;7.170;2023-05-13T10:48:38;20.40;99.90
5358;DHT22;2702;51.014;7.170;2023-05-13T10:51:26;20.30;99.90
5358;DHT22;2702;51.014;7.170;2023-05-13T10:53:55;20.20;99.90
5358;DHT22;2702;51.014;7.170;2023-05-13T10:56:28;20.20;99.90
5358;DHT22;2702;51.014;7.170;2023-05-13T10:59:11;20.10;99.90
5358;DHT22;2702;51.014;7.170;2023-05-13T11:01:44;20.20;99.90
5358;DHT22;2702;51.014;7.170;2023-05-13T11:04:14;20.00;99.90
5358;DHT22;2702;51.014;7.170;2023-05-13T11:06:43;19.70;99.90
5358;DHT22;2702;51.014;7.170;2023-05-13T11:09:13;19.20;99.90
5358;DHT22;2702;51.014;7.170;2023-05-13T11:11:52;18.40;99.90
5358;DHT22;2702;51.014;7.170;2023-05-13T11:14:20;18.30;99.90
5358;DHT22;2702;51.014;7.170;2023-05-13T11:19:29;17.80;99.90
5358;DHT22;2702;51.014;7.170;2023-05-13T11:22:15;17.60;99.90
5358;DHT22;2702;51.014;7.170;2023-05-13T11:25:11;17.50;99.90
5358;DHT22;2702;51.014;7.170;2023-05-13T11:27:41;17.50;99.90
5358;DHT22;2702;51.014;7.170;2023-05-13T11:30:22;17.60;99.90
5358;DHT22;2702;51.014;7.170;2023-05-13T11:32:53;17.60;99.90
5358;DHT22;2702;51.014;7.170;2023-05-13T11:38:03;17.60;99.90
5358;DHT22;2702;51.014;7.170;2023-05-13T11:40:38;17.60;99.90
5358;DHT22;2702;51.014;7.170;2023-05-13T11:43:07;17.70;99.90
5358;DHT22;2702;51.014;7.170;2023-05-13T11:45:38;17.50;99.90
5358;DHT22;2702;51.014;7.170;2023-05-13T11:48:24;17.50;99.90
5358;DHT22;2702;51.014;7.170;2023-05-13T11:50:56;17.50;99.90
5358;DHT22;2702;51.014;7.170;2023-05-13T11:53:25;17.30;99.90
5358;DHT22;2702;51.014;7.170;2023-05-13T11:55:54;17.20;99.90
5358;DHT22;2702;51.014;7.170;2023-05-13T11:58:20;17.20;99.90
5358;DHT22;2702;51.014;7.170;2023-05-13T12:00:47;17.30;99.90
5358;DHT22;2702;51.014;7.170;2023-05-13T12:03:14;17.20;99.90
5358;DHT22;2702;51.014;7.170;2023-05-13T12:05:42;17.40;99.90
5358;DHT22;2702;51.014;7.170;2023-05-13T12:08:12;17.50;99.90
5358;DHT22;2702;51.014;7.170;2023-05-13T12:10:47;17.50;99.90
5358;DHT22;2702;51.014;7.170;2023-05-13T12:13:15;17.40;99.90
5358;DHT22;2702;51.014;7.170;2023-05-13T12:15:45;17.40;99.90
5358;DHT22;2702;51.014;7.170;2023-05-13T12:18:14;17.20;99.90
5358;DHT22;2702;51.014;7.170;2023-05-13T12:20:41;17.10;99.90
5358;DHT22;2702;51.014;7.170;2023-05-13T12:25:58;16.90;99.90
5358;DHT22;2702;51.014;7.170;2023-05-13T12:28:28;16.80;99.90
5358;DHT22;2702;51.014;7.170;2023-05-13T12:31:32;16.80;99.90
5358;DHT22;2702;51.014;7.170;2023-05-13T12:34:01;16.80;99.90
5358;DHT22;2702;51.014;7.170;2023-05-13T12:36:30;16.80;99.90
5358;DHT22;2702;51.014;7.170;2023-05-13T12:39:05;17.00;99.90
5358;DHT22;2702;51.014;7.170;2023-05-13T12:41:50;17.10;99.90
5358;DHT22;2702;51.014;7.170;2023-05-13T12:44:23;17.40;99.90
5358;DHT22;2702;51.014;7.170;2023-05-13T12:47:04;17.60;99.90
5358;DHT22;2702;51.014;7.170;2023-05-13T12:49:32;18.00;99.90
5358;DHT22;2702;51.014;7.170;2023-05-13T12:52:03;18.20;99.90
5358;DHT22;2702;51.014;7.170;2023-05-13T12:54:30;18.80;99.90
5358;DHT22;2702;51.014;7.170;2023-05-13T12:56:56;19.20;99.90
5358;DHT22;2702;51.014;7.170;2023-05-13T12:59:57;19.10;99.90
5358;DHT22;2702;51.014;7.170;2023-05-13T13:02:23;18.90;99.90
5358;DHT22;2702;51.014;7.170;2023-05-13T13:04:53;18.80;99.90
5358;DHT22;2702;51.014;7.170;2023-05-13T13:07:21;18.90;99.90
5358;DHT22;2702;51.014;7.170;2023-05-13T13:09:47;19.00;99.90
5358;DHT22;2702;51.014;7.170;2023-05-13T13:12:15;19.10;99.90
5358;DHT22;2702;51.014;7.170;2023-05-13T13:14:50;19.30;99.90
5358;DHT22;2702;51.014;7.170;2023-05-13T13:17:17;19.60;99.90
5358;DHT22;2702;51.014;7.170;2023-05-13T13:19:43;19.70;99.90
5358;DHT22;2702;51.014;7.170;2023-05-13T13:22:14;20.20;99.90
5358;DHT22;2702;51.014;7.170;2023-05-13T13:24:43;20.50;99.90
5358;DHT22;2702;51.014;7.170;2023-05-13T13:27:11;20.70;99.90
5358;DHT22;2702;51.014;7.170;2023-05-13T13:29:46;21.00;99.90
5358;DHT22;2702;51.014;7.170;2023-05-13T13:32:13;21.30;99.90
5358;DHT22;2702;51.014;7.170;2023-05-13T13:34:42;21.50;99.90
5358;DHT22;2702;51.014;7.170;2023-05-13T13:37:12;21.50;99.90
5358;DHT22;2702;51.014;7.170;2023-05-13T13:39:38;21.80;99.90
5358;DHT22;2702;51.014;7.170;2023-05-13T13:42:05;22.10;99.90
5358;DHT22;2702;51.014;7.170;2023-05-13T13:44:43;22.40;99.90
5358;DHT22;2702;51.014;7.170;2023-05-13T13:47:10;22.30;99.90
5358;DHT22;2702;51.014;7.170;2023-05-13T13:49:48;22.10;99.90
5358;DHT22;2702;51.014;7.170;2023-05-13T13:52:16;22.10;99.90
5358;DHT22;2702;51.014;7.170;2023-05-13T13:54:58;22.10;99.90
5358;DHT22;2702;51.014;7.170;2023-05-13T13:57:25;22.10;99.90
5358;DHT22;2702;51.014;7.170;2023-05-13T13:59:52;22.20;99.90
5358;DHT22;2702;51.014;7.170;2023-05-13T14:02:18;21.80;99.90
5358;DHT22;2702;51.014;7.170;2023-05-13T14:05:03;21.30;99.90
5358;DHT22;2702;51.014;7.170;2023-05-13T14:07:35;20.90;99.90
5358;DHT22;2702;51.014;7.170;2023-05-13T14:10:09;20.50;99.90
5358;DHT22;2702;51.014;7.170;2023-05-13T14:12:36;20.40;99.90
5358;DHT22;2702;51.014;7.170;2023-05-13T14:15:11;20.10;99.90
5358;DHT22;2702;51.014;7.170;2023-05-13T14:17:40;20.30;99.90
5358;DHT22;2702;51.014;7.170;2023-05-13T14:20:07;20.40;99.90
5358;DHT22;2702;51.014;7.170;2023-05-13T14:22:37;20.60;99.90
5358;DHT22;2702;51.014;7.170;2023-05-13T14:25:16;20.50;99.90
5358;DHT22;2702;51.014;7.170;2023-05-13T14:28:11;20.80;99.90
5358;DHT22;2702;51.014;7.170;2023-05-13T14:30:44;20.70;99.90
5358;DHT22;2702;51.014;7.170;2023-05-13T14:33:20;20.70;99.90
5358;DHT22;2702;51.014;7.170;2023-05-13T14:35:47;20.90;99.90
5358;DHT22;2702;51.014;7.170;2023-05-13T14:38:13;21.20;99.90
5358;DHT22;2702;51.014;7.170;2023-05-13T14:40:40;21.50;99.90
5358;DHT22;2702;51.014;7.170;2023-05-13T14:43:07;21.70;99.90
5358;DHT22;2702;51.014;7.170;2023-05-13T14:45:36;21.80;99.90
5358;DHT22;2702;51.014;7.170;2023-05-13T14:48:06;22.10;99.90
5358;DHT22;2702;51.014;7.170;2023-05-13T14:50:35;22.40;99.90
5358;DHT22;2702;51.014;7.170;2023-05-13T14:53:02;22.60;99.90
5358;DHT22;2702;51.014;7.170;2023-05-13T14:55:29;22.70;99.90
5358;DHT22;2702;51.014;7.170;2023-05-13T14:57:59;22.60;99.90
5358;DHT22;2702;51.014;7.170;2023-05-13T15:00:41;22.50;99.90
5358;DHT22;2702;51.014;7.170;2023-05-13T15:03:08;22.10;99.90
5358;DHT22;2702;51.014;7.170;2023-05-13T15:05:44;21.90;99.90
5358;DHT22;2702;51.014;7.170;2023-05-13T15:08:12;22.00;99.90
5358;DHT22;2702;51.014;7.170;2023-05-13T15:10:38;22.00;99.90
5358;DHT22;2702;51.014;7.170;2023-05-13T15:13:05;21.90;99.90
5358;DHT22;2702;51.014;7.170;2023-05-13T15:15:37;22.00;99.90
5358;DHT22;2702;51.014;7.170;2023-05-13T15:18:05;21.90;99.90
5358;DHT22;2702;51.014;7.170;2023-05-13T15:20:38;21.60;99.90
5358;DHT22;2702;51.014;7.170;2023-05-13T15:23:08;21.60;99.90
5358;DHT22;2702;51.014;7.170;2023-05-13T15:25:35;21.60;99.90
5358;DHT22;2702;51.014;7.170;2023-05-13T15:28:02;21.10;99.90
5358;DHT22;2702;51.014;7.170;2023-05-13T15:30:41;20.70;99.90
5358;DHT22;2702;51.014;7.170;2023-05-13T15:33:09;20.30;99.90
5358;DHT22;2702;51.014;7.170;2023-05-13T15:35:38;19.90;99.90
5358;DHT22;2702;51.014;7.170;2023-05-13T15:38:07;19.50;99.90
5358;DHT22;2702;51.014;7.170;2023-05-13T15:40:41;19.20;99.90
5358;DHT22;2702;51.014;7.170;2023-05-13T15:43:11;19.10;99.90
5358;DHT22;2702;51.014;7.170;2023-05-13T15:45:37;19.10;99.90
5358;DHT22;2702;51.014;7.170;2023-05-13T15:48:05;19.20;99.90
5358;DHT22;2702;51.014;7.170;2023-05-13T15:50:54;19.00;99.90
5358;DHT22;2702;51.014;7.170;2023-05-13T15:53:21;18.80;99.90
5358;DHT22;2702;51.014;7.170;2023-05-13T15:55:48;18.70;99.90
5358;DHT22;2702;51.014;7.170;2023-05-13T15:58:15;18.60;99.90
5358;DHT22;2702;51.014;7.170;2023-05-13T16:00:42;18.60;99.90
5358;DHT22;2702;51.014;7.170;2023-05-13T16:03:08;18.40;99.90
5358;DHT22;2702;51.014;7.170;2023-05-13T16:05:59;18.60;99.90
5358;DHT22;2702;51.014;7.170;2023-05-13T16:08:26;18.40;99.90
5358;DHT22;2702;51.014;7.170;2023-05-13T16:10:56;18.30;99.90
5358;DHT22;2702;51.014;7.170;2023-05-13T16:13:22;18.10;99.90
5358;DHT22;2702;51.014;7.170;2023-05-13T16:15:49;18.00;99.90
5358;DHT22;2702;51.014;7.170;2023-05-13T16:18:16;18.00;99.90
5358;DHT22;2702;51.014;7.170;2023-05-13T16:21:03;17.90;99.90
5358;DHT22;2702;51.014;7.170;2023-05-13T16:23:29;18.10;99.90
5358;DHT22;2702;51.014;7.170;2023-05-13T16:25:56;18.10;99.90
5358;DHT22;2702;51.014;7.170;2023-05-13T16:28:22;18.10;99.90
5358;DHT22;2702;51.014;7.170;2023-05-13T16:30:49;18.00;99.90
5358;DHT22;2702;51.014;7.170;2023-05-13T16:33:16;17.90;99.90
5358;DHT22;2702;51.014;7.170;2023-05-13T16:35:43;17.80;99.90
5358;DHT22;2702;51.014;7.170;2023-05-13T16:38:13;17.80;99.90
5358;DHT22;2702;51.014;7.170;2023-05-13T16:40:39;17.80;99.90
5358;DHT22;2702;51.014;7.170;2023-05-13T16:43:06;17.80;99.90
5358;DHT22;2702;51.014;7.170;2023-05-13T16:45:32;17.80;99.90
5358;DHT22;2702;51.014;7.170;2023-05-13T16:47:58;17.90;99.90
5358;DHT22;2702;51.014;7.170;2023-05-13T16:50:25;17.90;99.90